createdAt,value
2018-05-18T00:01:03.670Z,83.30
2018-05-18T00:02:09.757Z,83.21
2018-05-18T00:03:16.047Z,83.36
2018-05-18T00:04:22.788Z,83.13
2018-05-18T00:05:29.278Z,83.40
2018-05-18T00:06:35.610Z,83.34
2018-05-18T00:07:41.998Z,83.24
2018-05-18T00:08:48.333Z,83.13
2018-05-18T00:09:54.665Z,82.62
2018-05-18T00:11:00.927Z,82.52
2018-05-18T00:12:07.271Z,82.51
2018-05-18T00:13:13.548Z,82.59
2018-05-18T00:14:20.487Z,82.49
2018-05-18T00:15:26.802Z,82.42
2018-05-18T00:16:33.136Z,82.55
2018-05-18T00:17:39.444Z,82.31
2018-05-18T00:18:45.725Z,82.69
2018-05-18T00:19:52.038Z,83.02
2018-05-18T00:20:58.361Z,82.66
2018-05-18T00:22:04.695Z,82.82
2018-05-18T00:23:11.113Z,83.94
2018-05-18T00:24:17.493Z,83.98
2018-05-18T00:25:23.825Z,83.91
2018-05-18T00:26:30.129Z,83.65
2018-05-18T00:27:36.549Z,83.43
2018-05-18T00:28:42.853Z,83.03
2018-05-18T00:29:49.225Z,83.16
2018-05-18T00:30:55.579Z,83.46
2018-05-18T00:32:02.509Z,84.22
2018-05-18T00:33:08.921Z,84.34
2018-05-18T00:34:15.042Z,84.31
2018-05-18T00:35:21.336Z,84.29
2018-05-18T00:36:27.638Z,83.83
2018-05-18T00:37:34.893Z,84.00
2018-05-18T00:38:41.202Z,84.80
2018-05-18T00:39:47.638Z,84.09
2018-05-18T00:40:55.353Z,84.04
2018-05-18T00:42:01.601Z,83.97
2018-05-18T00:43:07.853Z,83.85
2018-05-18T00:44:14.159Z,83.79
2018-05-18T00:45:20.521Z,84.10
2018-05-18T00:46:31.765Z,83.87
2018-05-18T00:47:38.052Z,84.37
2018-05-18T00:48:44.440Z,84.31
2018-05-18T00:49:50.752Z,84.46
2018-05-18T00:50:57.065Z,84.09
2018-05-18T00:52:03.404Z,83.98
2018-05-18T00:53:14.669Z,84.08
2018-05-18T00:54:21.045Z,84.64
2018-05-18T00:55:38.519Z,84.11
2018-05-18T00:56:44.897Z,84.06
2018-05-18T00:57:51.220Z,83.88
2018-05-18T00:58:57.509Z,84.32
2018-05-18T01:00:03.471Z,84.30
2018-05-18T01:01:09.516Z,84.12
2018-05-18T01:02:22.337Z,83.96
2018-05-18T01:03:28.730Z,84.07
2018-05-18T01:04:38.752Z,85.01
2018-05-18T01:05:44.808Z,84.81
2018-05-18T01:06:51.361Z,84.48
2018-05-18T01:07:58.233Z,84.42
2018-05-18T01:09:03.365Z,84.14
2018-05-18T01:10:09.474Z,84.30
2018-05-18T01:11:15.753Z,84.70
2018-05-18T01:12:22.086Z,84.24
2018-05-18T01:13:29.209Z,84.36
2018-05-18T01:14:35.506Z,84.18
2018-05-18T01:15:41.814Z,84.32
2018-05-18T01:16:48.126Z,84.22
2018-05-18T01:17:54.463Z,84.47
2018-05-18T01:19:00.755Z,84.46
2018-05-18T01:20:07.687Z,84.86
2018-05-18T01:21:14.001Z,85.60
2018-05-18T01:22:20.407Z,85.05
2018-05-18T01:23:26.612Z,85.01
2018-05-18T01:24:32.928Z,84.68
2018-05-18T01:25:39.401Z,84.41
2018-05-18T01:26:45.381Z,84.39
2018-05-18T01:27:52.335Z,84.55
2018-05-18T01:28:58.574Z,84.07
2018-05-18T01:30:04.190Z,84.10
2018-05-18T01:31:10.181Z,84.29
2018-05-18T01:32:17.107Z,84.21
2018-05-18T01:33:23.453Z,84.22
2018-05-18T01:34:29.759Z,84.39
2018-05-18T01:35:35.870Z,84.66
2018-05-18T01:36:42.149Z,84.65
2018-05-18T01:37:48.581Z,84.22
2018-05-18T01:38:54.913Z,84.52
2018-05-18T01:40:01.214Z,84.16
2018-05-18T01:41:07.590Z,84.01
2018-05-18T01:42:13.900Z,84.07
2018-05-18T01:43:20.245Z,84.57
2018-05-18T01:44:26.544Z,84.57
2018-05-18T01:45:32.657Z,84.39
2018-05-18T01:46:38.888Z,84.30
2018-05-18T01:47:45.179Z,84.67
2018-05-18T01:48:51.478Z,84.50
2018-05-18T01:49:57.828Z,84.26
2018-05-18T01:51:04.133Z,84.36
2018-05-18T01:52:10.727Z,83.98
2018-05-18T01:53:17.049Z,84.14
2018-05-18T01:54:23.351Z,84.24
2018-05-18T01:55:30.465Z,83.84
2018-05-18T01:56:36.899Z,83.73
2018-05-18T01:57:43.227Z,83.50
2018-05-18T01:58:50.954Z,83.52
2018-05-18T01:59:57.162Z,83.55
2018-05-18T02:01:04.321Z,83.62
2018-05-18T02:02:14.708Z,83.34
2018-05-18T02:03:21.021Z,83.47
2018-05-18T02:04:27.321Z,83.34
2018-05-18T02:05:33.642Z,83.43
2018-05-18T02:06:39.915Z,83.46
2018-05-18T02:07:45.892Z,83.75
2018-05-18T02:08:52.331Z,83.51
2018-05-18T02:09:58.652Z,83.54
2018-05-18T02:11:04.886Z,83.41
2018-05-18T02:12:11.169Z,83.71
2018-05-18T02:13:17.513Z,83.87
2018-05-18T02:14:24.319Z,83.68
2018-05-18T02:15:30.424Z,83.55
2018-05-18T02:16:36.728Z,83.71
2018-05-18T02:17:43.073Z,83.35
2018-05-18T02:18:49.377Z,83.21
2018-05-18T02:19:55.629Z,83.33
2018-05-18T02:21:01.913Z,83.50
2018-05-18T02:22:08.283Z,83.59
2018-05-18T02:23:14.634Z,83.73
2018-05-18T02:24:20.918Z,83.33
2018-05-18T02:25:30.462Z,83.44
2018-05-18T02:26:37.064Z,83.26
2018-05-18T02:27:44.023Z,83.30
2018-05-18T02:28:51.323Z,83.27
2018-05-18T02:29:59.690Z,83.35
2018-05-18T02:31:06.942Z,83.71
2018-05-18T02:32:14.035Z,83.17
2018-05-18T02:33:21.779Z,83.06
2018-05-18T02:34:28.903Z,83.01
2018-05-18T02:35:36.137Z,83.64
2018-05-18T02:36:43.150Z,83.89
2018-05-18T02:37:50.314Z,84.04
2018-05-18T02:38:58.362Z,83.93
2018-05-18T02:40:06.203Z,83.74
2018-05-18T02:41:12.769Z,84.34
2018-05-18T02:42:20.491Z,84.14
2018-05-18T02:43:27.796Z,84.67
2018-05-18T02:44:35.738Z,84.70
2018-05-18T02:45:42.579Z,84.36
2018-05-18T02:46:49.509Z,84.28
2018-05-18T02:47:56.264Z,84.26
2018-05-18T02:49:03.561Z,83.79
2018-05-18T02:50:11.159Z,84.08
2018-05-18T02:51:18.781Z,83.93
2018-05-18T02:52:26.018Z,84.00
2018-05-18T02:53:33.116Z,83.99
2018-05-18T02:54:40.581Z,84.37
2018-05-18T02:55:47.869Z,83.97
2018-05-18T02:56:55.014Z,84.35
2018-05-18T02:58:01.895Z,84.22
2018-05-18T02:59:09.097Z,84.07
2018-05-18T03:00:16.606Z,83.88
2018-05-18T03:01:25.066Z,84.22
2018-05-18T03:02:32.372Z,84.17
2018-05-18T03:03:39.730Z,83.65
2018-05-18T03:04:48.589Z,83.75
2018-05-18T03:05:54.803Z,83.65
2018-05-18T03:07:02.031Z,83.81
2018-05-18T03:08:09.326Z,84.61
2018-05-18T03:09:16.811Z,84.81
2018-05-18T03:10:23.860Z,84.19
2018-05-18T03:11:32.333Z,84.36
2018-05-18T03:12:39.790Z,84.41
2018-05-18T03:13:47.599Z,84.16
2018-05-18T03:14:54.967Z,84.32
2018-05-18T03:16:02.243Z,84.18
2018-05-18T03:17:09.163Z,83.99
2018-05-18T03:18:16.433Z,83.62
2018-05-18T03:19:22.986Z,84.23
2018-05-18T03:20:29.745Z,84.11
2018-05-18T03:21:37.010Z,84.42
2018-05-18T03:22:43.627Z,83.87
2018-05-18T03:23:50.646Z,84.19
2018-05-18T03:24:57.499Z,84.26
2018-05-18T03:26:04.733Z,84.00
2018-05-18T03:27:11.290Z,83.79
2018-05-18T03:28:18.452Z,84.42
2018-05-18T03:29:29.016Z,84.45
2018-05-18T03:30:39.292Z,84.38
2018-05-18T03:31:46.055Z,84.96
2018-05-18T03:32:53.019Z,84.71
2018-05-18T03:34:00.409Z,84.54
2018-05-18T03:35:07.064Z,84.53
2018-05-18T03:36:13.479Z,84.57
2018-05-18T03:37:19.777Z,84.39
2018-05-18T03:38:26.984Z,84.12
2018-05-18T03:39:33.396Z,84.22
2018-05-18T03:40:39.620Z,84.43
2018-05-18T03:41:46.012Z,84.15
2018-05-18T03:42:52.328Z,84.23
2018-05-18T03:43:58.648Z,84.22
2018-05-18T03:45:04.256Z,84.02
2018-05-18T03:46:10.530Z,84.13
2018-05-18T03:47:16.841Z,84.05
2018-05-18T03:48:23.177Z,84.59
2018-05-18T03:49:29.522Z,84.32
2018-05-18T03:50:35.922Z,84.28
2018-05-18T03:51:42.204Z,84.15
2018-05-18T03:52:52.146Z,84.30
2018-05-18T03:53:59.049Z,84.42
2018-05-18T03:55:05.389Z,84.35
2018-05-18T03:56:11.684Z,84.85
2018-05-18T03:57:17.964Z,84.62
2018-05-18T03:58:24.449Z,84.55
2018-05-18T03:59:30.703Z,84.61
2018-05-18T04:00:40.288Z,84.43
2018-05-18T04:01:58.255Z,85.10
2018-05-18T04:03:22.278Z,85.19
2018-05-18T04:04:39.638Z,84.96
2018-05-18T04:06:08.933Z,85.26
2018-05-18T04:07:26.910Z,85.18
2018-05-18T04:08:53.867Z,84.96
2018-05-18T04:10:11.660Z,84.77
2018-05-18T04:11:19.367Z,84.87
2018-05-18T04:12:25.671Z,84.92
2018-05-18T04:13:31.945Z,84.87
2018-05-18T04:14:41.702Z,85.18
2018-05-18T04:15:47.974Z,85.33
2018-05-18T04:16:54.203Z,85.40
2018-05-18T04:18:00.449Z,85.49
2018-05-18T04:19:06.682Z,85.38
2018-05-18T04:20:12.922Z,85.15
2018-05-18T04:21:19.733Z,84.74
2018-05-18T04:22:26.055Z,84.81
2018-05-18T04:23:32.108Z,85.17
2018-05-18T04:24:38.513Z,85.19
2018-05-18T04:25:44.779Z,85.21
2018-05-18T04:26:51.119Z,84.98
2018-05-18T04:27:57.385Z,85.14
2018-05-18T04:29:03.636Z,84.20
2018-05-18T04:30:09.993Z,84.19
2018-05-18T04:31:16.453Z,84.43
2018-05-18T04:32:22.401Z,84.54
2018-05-18T04:33:28.634Z,84.39
2018-05-18T04:34:35.773Z,84.12
2018-05-18T04:35:42.796Z,83.96
2018-05-18T04:36:49.160Z,84.17
2018-05-18T04:37:55.085Z,84.98
2018-05-18T04:39:01.329Z,84.36
2018-05-18T04:40:07.984Z,84.04
2018-05-18T04:41:14.394Z,83.91
2018-05-18T04:42:21.310Z,84.04
2018-05-18T04:43:27.629Z,83.89
2018-05-18T04:44:33.950Z,84.45
2018-05-18T04:45:40.206Z,85.04
2018-05-18T04:46:46.451Z,84.93
2018-05-18T04:47:52.737Z,85.04
2018-05-18T04:48:59.054Z,84.69
2018-05-18T04:50:05.034Z,84.04
2018-05-18T04:51:12.320Z,84.81
2018-05-18T04:52:18.635Z,84.53
2018-05-18T04:53:24.941Z,84.66
2018-05-18T04:54:31.238Z,85.65
2018-05-18T04:55:38.231Z,85.08
2018-05-18T04:56:44.488Z,85.80
2018-05-18T04:57:51.138Z,85.06
2018-05-18T04:58:57.763Z,85.15
2018-05-18T05:00:04.109Z,84.68
2018-05-18T05:01:10.326Z,84.71
2018-05-18T05:02:16.669Z,84.63
2018-05-18T05:03:22.978Z,84.40
2018-05-18T05:04:29.369Z,84.54
2018-05-18T05:05:35.734Z,84.52
2018-05-18T05:06:42.029Z,84.86
2018-05-18T05:07:48.306Z,85.15
2018-05-18T05:08:54.547Z,85.26
2018-05-18T05:10:01.446Z,85.00
2018-05-18T05:11:07.794Z,84.82
2018-05-18T05:12:14.653Z,84.96
2018-05-18T05:13:20.893Z,84.26
2018-05-18T05:14:28.251Z,84.60
2018-05-18T05:15:34.554Z,84.55
2018-05-18T05:16:40.845Z,84.57
2018-05-18T05:17:47.146Z,84.64
2018-05-18T05:18:53.490Z,84.77
2018-05-18T05:19:59.781Z,84.29
2018-05-18T05:21:06.137Z,84.45
2018-05-18T05:22:12.457Z,84.70
2018-05-18T05:23:21.290Z,84.72
2018-05-18T05:24:28.981Z,84.79
2018-05-18T05:25:37.532Z,85.00
2018-05-18T05:26:44.121Z,85.53
2018-05-18T05:27:50.459Z,86.20
2018-05-18T05:28:56.697Z,86.15
2018-05-18T05:30:03.477Z,86.04
2018-05-18T05:31:09.721Z,85.89
2018-05-18T05:32:16.439Z,85.77
2018-05-18T05:33:22.772Z,85.38
2018-05-18T05:34:29.145Z,86.03
2018-05-18T05:35:35.468Z,86.92
2018-05-18T05:36:41.936Z,87.01
2018-05-18T05:37:48.373Z,86.80
2018-05-18T05:38:54.661Z,86.37
2018-05-18T05:40:01.114Z,86.33
2018-05-18T05:41:07.730Z,87.13
2018-05-18T05:42:19.952Z,86.85
2018-05-18T05:43:30.169Z,87.07
2018-05-18T05:44:36.549Z,87.33
2018-05-18T05:45:42.848Z,87.38
2018-05-18T05:46:49.117Z,87.63
2018-05-18T05:47:55.563Z,87.55
2018-05-18T05:49:01.801Z,87.15
2018-05-18T05:50:08.101Z,87.42
2018-05-18T05:51:14.580Z,88.21
2018-05-18T05:52:21.476Z,87.56
2018-05-18T05:53:27.765Z,87.39
2018-05-18T05:54:33.984Z,87.31
2018-05-18T05:55:40.311Z,88.32
2018-05-18T05:56:50.512Z,88.09
2018-05-18T05:57:57.076Z,87.82
2018-05-18T05:59:03.533Z,87.78
2018-05-18T06:00:09.961Z,87.68
2018-05-18T06:01:16.886Z,88.29
2018-05-18T06:02:23.184Z,88.05
2018-05-18T06:03:29.492Z,88.40
2018-05-18T06:04:35.838Z,87.91
2018-05-18T06:05:42.120Z,88.37
2018-05-18T06:06:49.029Z,88.92
2018-05-18T06:07:55.471Z,88.28
2018-05-18T06:09:03.454Z,88.54
2018-05-18T06:10:10.167Z,88.18
2018-05-18T06:11:18.121Z,88.33
2018-05-18T06:12:24.524Z,88.21
2018-05-18T06:13:31.002Z,88.26
2018-05-18T06:14:37.170Z,87.89
2018-05-18T06:15:43.470Z,88.06
2018-05-18T06:16:49.770Z,87.99
2018-05-18T06:17:56.070Z,89.30
2018-05-18T06:19:02.373Z,89.10
2018-05-18T06:20:08.653Z,88.65
2018-05-18T06:21:14.670Z,88.63
2018-05-18T06:22:20.998Z,88.12
2018-05-18T06:23:27.289Z,87.54
2018-05-18T06:24:33.599Z,87.07
2018-05-18T06:25:39.908Z,87.07
2018-05-18T06:26:46.252Z,86.91
2018-05-18T06:27:52.565Z,87.47
2018-05-18T06:28:59.804Z,87.46
2018-05-18T06:30:05.511Z,87.06
2018-05-18T06:31:11.812Z,87.15
2018-05-18T06:32:18.098Z,86.87
2018-05-18T06:33:24.403Z,87.39
2018-05-18T06:34:30.753Z,86.92
2018-05-18T06:35:36.946Z,87.10
2018-05-18T06:36:43.496Z,87.24
2018-05-18T06:37:49.826Z,86.71
2018-05-18T06:38:56.064Z,87.62
2018-05-18T06:40:02.384Z,88.00
2018-05-18T06:41:08.793Z,87.77
2018-05-18T06:42:15.236Z,87.19
2018-05-18T06:43:21.526Z,86.27
2018-05-18T06:44:28.371Z,85.89
2018-05-18T06:45:34.933Z,86.00
2018-05-18T06:46:41.267Z,86.12
2018-05-18T06:47:47.783Z,85.97
2018-05-18T06:48:54.015Z,86.42
2018-05-18T06:50:00.331Z,86.99
2018-05-18T06:51:06.630Z,87.02
2018-05-18T06:52:12.952Z,87.21
2018-05-18T06:53:19.249Z,87.31
2018-05-18T06:54:25.448Z,87.35
2018-05-18T06:55:31.828Z,86.76
2018-05-18T06:56:38.119Z,86.51
2018-05-18T06:57:44.424Z,86.43
2018-05-18T06:58:50.725Z,87.09
2018-05-18T06:59:58.084Z,86.79
2018-05-18T07:01:04.747Z,87.10
2018-05-18T07:02:11.105Z,87.20
2018-05-18T07:03:17.323Z,87.47
2018-05-18T07:04:23.639Z,87.67
2018-05-18T07:05:29.894Z,87.73
2018-05-18T07:06:36.958Z,88.02
2018-05-18T07:07:43.273Z,87.33
2018-05-18T07:08:49.232Z,87.11
2018-05-18T07:09:55.561Z,87.67
2018-05-18T07:11:01.888Z,88.49
2018-05-18T07:12:08.222Z,88.14
2018-05-18T07:13:14.639Z,87.10
2018-05-18T07:14:20.917Z,86.13
2018-05-18T07:15:27.327Z,86.47
2018-05-18T07:16:33.716Z,85.92
2018-05-18T07:17:40.186Z,86.17
2018-05-18T07:18:46.167Z,86.24
2018-05-18T07:19:52.479Z,85.92
2018-05-18T07:20:58.863Z,85.18
2018-05-18T07:22:05.119Z,85.99
2018-05-18T07:23:11.401Z,85.61
2018-05-18T07:24:17.735Z,86.01
2018-05-18T07:25:24.017Z,86.39
2018-05-18T07:26:30.236Z,86.09
2018-05-18T07:27:36.585Z,85.78
2018-05-18T07:28:42.890Z,85.03
2018-05-18T07:29:49.183Z,85.72
2018-05-18T07:30:56.014Z,85.84
2018-05-18T07:32:02.352Z,85.23
2018-05-18T07:33:08.662Z,85.73
2018-05-18T07:34:14.931Z,84.81
2018-05-18T07:35:20.905Z,84.75
2018-05-18T07:36:28.221Z,84.84
2018-05-18T07:37:35.194Z,85.00
2018-05-18T07:38:41.525Z,84.73
2018-05-18T07:39:48.425Z,84.70
2018-05-18T07:40:56.664Z,84.69
2018-05-18T07:42:06.937Z,84.64
2018-05-18T07:43:14.378Z,84.34
2018-05-18T07:44:20.688Z,84.18
2018-05-18T07:45:27.060Z,84.02
2018-05-18T07:46:33.380Z,84.23
2018-05-18T07:47:39.722Z,83.28
2018-05-18T07:48:45.965Z,84.24
2018-05-18T07:49:52.215Z,84.11
2018-05-18T07:50:58.526Z,83.27
2018-05-18T07:52:05.690Z,84.07
2018-05-18T07:53:12.561Z,83.75
2018-05-18T07:54:18.881Z,84.32
2018-05-18T07:55:25.193Z,83.30
2018-05-18T07:56:31.494Z,84.72
2018-05-18T07:57:37.754Z,84.32
2018-05-18T07:58:44.080Z,83.61
2018-05-18T07:59:50.341Z,83.86
2018-05-18T08:00:56.699Z,84.06
2018-05-18T08:02:02.977Z,83.79
2018-05-18T08:03:08.977Z,84.49
2018-05-18T08:04:15.328Z,85.01
2018-05-18T08:05:21.548Z,85.18
2018-05-18T08:06:27.822Z,83.43
2018-05-18T08:07:34.624Z,84.38
2018-05-18T08:08:40.938Z,84.18
2018-05-18T08:09:47.238Z,84.11
2018-05-18T08:10:53.461Z,84.71
2018-05-18T08:12:00.503Z,84.04
2018-05-18T08:13:07.181Z,84.36
2018-05-18T08:14:13.451Z,83.66
2018-05-18T08:15:19.730Z,84.36
2018-05-18T08:16:27.002Z,83.83
2018-05-18T08:17:33.294Z,85.27
2018-05-18T08:18:39.605Z,85.16
2018-05-18T08:19:45.894Z,85.50
2018-05-18T08:20:52.203Z,85.35
2018-05-18T08:21:58.876Z,86.12
2018-05-18T08:23:05.176Z,85.78
2018-05-18T08:24:11.458Z,84.53
2018-05-18T08:25:17.785Z,83.93
2018-05-18T08:26:24.101Z,84.06
2018-05-18T08:27:30.432Z,84.59
2018-05-18T08:28:48.428Z,85.13
2018-05-18T08:29:54.462Z,84.71
2018-05-18T08:31:11.704Z,83.82
2018-05-18T08:32:17.950Z,83.91
2018-05-18T08:33:24.270Z,83.77
2018-05-18T08:34:30.658Z,83.75
2018-05-18T08:35:37.037Z,84.18
2018-05-18T08:36:43.336Z,84.71
2018-05-18T08:37:49.625Z,85.16
2018-05-18T08:38:55.922Z,84.65
2018-05-18T08:40:02.233Z,84.43
2018-05-18T08:41:08.544Z,84.40
2018-05-18T08:42:14.903Z,84.01
2018-05-18T08:43:21.298Z,84.01
2018-05-18T08:44:27.617Z,84.39
2018-05-18T08:45:34.244Z,84.23
2018-05-18T08:46:41.234Z,85.00
2018-05-18T08:47:47.556Z,84.48
2018-05-18T08:48:53.908Z,84.17
2018-05-18T08:50:00.107Z,84.21
2018-05-18T08:51:06.387Z,84.09
2018-05-18T08:52:12.702Z,84.61
2018-05-18T08:53:19.028Z,83.62
2018-05-18T08:54:26.475Z,84.45
2018-05-18T08:55:34.209Z,84.18
2018-05-18T08:56:40.647Z,83.87
2018-05-18T08:57:47.257Z,83.14
2018-05-18T08:58:54.489Z,83.80
2018-05-18T09:00:01.200Z,84.01
2018-05-18T09:01:07.645Z,84.03
2018-05-18T09:02:14.833Z,83.05
2018-05-18T09:03:22.493Z,83.73
2018-05-18T09:04:28.821Z,84.13
2018-05-18T09:05:35.533Z,83.85
2018-05-18T09:06:45.491Z,84.35
2018-05-18T09:07:53.068Z,84.17
2018-05-18T09:08:59.721Z,84.55
2018-05-18T09:10:06.195Z,84.44
2018-05-18T09:11:12.481Z,84.83
2018-05-18T09:12:18.811Z,84.36
2018-05-18T09:13:25.353Z,84.59
2018-05-18T09:14:31.628Z,84.88
2018-05-18T09:15:38.970Z,84.79
2018-05-18T09:16:45.383Z,85.62
2018-05-18T09:17:51.668Z,85.86
2018-05-18T09:18:57.915Z,84.84
2018-05-18T09:20:03.836Z,84.72
2018-05-18T09:21:10.089Z,83.66
2018-05-18T09:22:16.413Z,84.13
2018-05-18T09:23:22.745Z,83.78
2018-05-18T09:24:29.161Z,85.03
2018-05-18T09:25:35.763Z,83.78
2018-05-18T09:26:42.573Z,83.02
2018-05-18T09:27:49.453Z,82.30
2018-05-18T09:28:55.743Z,82.28
2018-05-18T09:30:02.037Z,80.94
2018-05-18T09:31:08.366Z,82.29
2018-05-18T09:32:14.686Z,81.76
2018-05-18T09:33:20.952Z,82.87
2018-05-18T09:34:27.289Z,80.37
2018-05-18T09:35:33.575Z,80.54
2018-05-18T09:36:40.410Z,81.72
2018-05-18T09:37:46.706Z,81.61
2018-05-18T09:38:53.053Z,80.85
2018-05-18T09:40:00.181Z,81.22
2018-05-18T09:41:08.836Z,81.74
2018-05-18T09:42:16.478Z,81.84
2018-05-18T09:43:22.417Z,81.01
2018-05-18T09:44:28.909Z,80.54
2018-05-18T09:45:35.208Z,80.41
2018-05-18T09:46:41.520Z,80.71
2018-05-18T09:47:47.791Z,81.11
2018-05-18T09:48:54.071Z,79.87
2018-05-18T09:50:01.521Z,79.59
2018-05-18T09:51:07.760Z,79.72
2018-05-18T09:52:15.216Z,80.08
2018-05-18T09:53:21.713Z,80.24
2018-05-18T09:54:28.168Z,80.20
2018-05-18T09:55:34.913Z,79.80
2018-05-18T09:56:42.091Z,79.31
2018-05-18T09:57:48.915Z,78.70
2018-05-18T09:58:55.182Z,78.70
2018-05-18T10:00:01.447Z,78.55
2018-05-18T10:01:07.480Z,78.21
2018-05-18T10:02:13.810Z,78.33
2018-05-18T10:03:20.074Z,78.81
2018-05-18T10:04:26.537Z,78.80
2018-05-18T10:05:32.919Z,79.33
2018-05-18T10:06:39.209Z,78.38
2018-05-18T10:07:45.807Z,78.58
2018-05-18T10:08:52.169Z,79.11
2018-05-18T10:09:58.123Z,78.53
2018-05-18T10:11:03.998Z,78.49
2018-05-18T10:12:10.234Z,78.79
2018-05-18T10:13:16.705Z,77.97
2018-05-18T10:14:23.017Z,76.97
2018-05-18T10:15:29.357Z,78.28
2018-05-18T10:16:35.795Z,77.72
2018-05-18T10:17:42.027Z,79.75
2018-05-18T10:18:48.442Z,78.23
2018-05-18T10:19:55.005Z,78.64
2018-05-18T10:21:01.572Z,78.00
2018-05-18T10:22:08.039Z,77.57
2018-05-18T10:23:14.563Z,78.44
2018-05-18T10:24:21.788Z,77.74
2018-05-18T10:25:28.109Z,78.00
2018-05-18T10:26:35.217Z,77.23
2018-05-18T10:27:42.159Z,77.49
2018-05-18T10:28:48.459Z,77.84
2018-05-18T10:29:54.748Z,77.70
2018-05-18T10:31:01.033Z,78.60
2018-05-18T10:32:07.281Z,76.69
2018-05-18T10:33:13.569Z,77.11
2018-05-18T10:34:20.180Z,77.55
2018-05-18T10:35:27.053Z,77.39
2018-05-18T10:36:33.330Z,77.58
2018-05-18T10:37:39.647Z,76.80
2018-05-18T10:38:46.051Z,76.70
2018-05-18T10:39:52.402Z,76.81
2018-05-18T10:40:58.585Z,75.81
2018-05-18T10:42:04.885Z,75.51
2018-05-18T10:43:11.214Z,77.54
2018-05-18T10:44:17.543Z,75.83
2018-05-18T10:45:24.183Z,75.21
2018-05-18T10:46:30.775Z,75.81
2018-05-18T10:47:37.042Z,76.29
2018-05-18T10:48:44.177Z,75.89
2018-05-18T10:49:50.432Z,76.66
2018-05-18T10:50:56.839Z,75.71
2018-05-18T10:52:03.628Z,75.38
2018-05-18T10:53:09.819Z,75.74
2018-05-18T10:54:16.361Z,75.21
2018-05-18T10:55:22.703Z,74.44
2018-05-18T10:56:29.005Z,76.19
2018-05-18T10:57:35.316Z,75.46
2018-05-18T10:58:41.649Z,75.50
2018-05-18T10:59:47.977Z,75.04
2018-05-18T11:00:55.073Z,74.66
2018-05-18T11:02:01.384Z,75.23
2018-05-18T11:03:08.314Z,74.31
2018-05-18T11:04:15.665Z,74.89
2018-05-18T11:05:22.593Z,75.30
2018-05-18T11:06:29.043Z,74.75
2018-05-18T11:07:36.134Z,74.71
2018-05-18T11:08:42.516Z,74.33
2018-05-18T11:09:48.508Z,74.68
2018-05-18T11:10:54.834Z,75.07
2018-05-18T11:12:01.110Z,74.49
2018-05-18T11:13:08.634Z,75.03
2018-05-18T11:14:16.568Z,75.12
2018-05-18T11:15:23.060Z,74.71
2018-05-18T11:16:29.363Z,74.87
2018-05-18T11:17:35.791Z,74.21
2018-05-18T11:18:42.778Z,74.74
2018-05-18T11:19:49.844Z,74.27
2018-05-18T11:20:56.949Z,74.76
2018-05-18T11:22:03.243Z,74.89
2018-05-18T11:23:09.454Z,74.05
2018-05-18T11:24:15.683Z,73.59
2018-05-18T11:25:22.009Z,74.76
2018-05-18T11:26:28.300Z,74.23
2018-05-18T11:27:34.645Z,74.49
2018-05-18T11:28:40.952Z,74.29
2018-05-18T11:29:47.278Z,75.02
2018-05-18T11:30:53.686Z,74.65
2018-05-18T11:31:59.992Z,75.79
2018-05-18T11:33:06.749Z,75.16
2018-05-18T11:34:19.366Z,74.64
2018-05-18T11:35:28.144Z,74.74
2018-05-18T11:36:34.826Z,75.04
2018-05-18T11:37:41.165Z,75.40
2018-05-18T11:38:47.505Z,76.04
2018-05-18T11:39:53.790Z,76.40
2018-05-18T11:41:00.131Z,75.64
2018-05-18T11:42:06.390Z,75.21
2018-05-18T11:43:12.694Z,75.50
2018-05-18T11:44:19.023Z,75.06
2018-05-18T11:45:26.004Z,75.20
2018-05-18T11:46:32.331Z,75.30
2018-05-18T11:47:38.416Z,75.15
2018-05-18T11:48:44.788Z,75.40
2018-05-18T11:49:51.073Z,75.88
2018-05-18T11:50:57.959Z,76.28
2018-05-18T11:52:04.673Z,75.18
2018-05-18T11:53:10.972Z,75.79
2018-05-18T11:54:17.261Z,75.79
2018-05-18T11:55:23.684Z,76.07
2018-05-18T11:56:30.553Z,75.45
2018-05-18T11:57:36.960Z,75.77
2018-05-18T11:58:43.221Z,75.17
2018-05-18T11:59:49.569Z,75.38
2018-05-18T12:00:55.866Z,74.81
2018-05-18T12:02:02.177Z,74.68
2018-05-18T12:03:08.494Z,75.13
2018-05-18T12:04:14.830Z,74.88
2018-05-18T12:05:21.126Z,74.69
2018-05-18T12:06:27.657Z,74.54
2018-05-18T12:07:33.952Z,74.66
2018-05-18T12:08:40.259Z,75.08
2018-05-18T12:09:46.771Z,75.06
2018-05-18T12:10:53.105Z,75.16
2018-05-18T12:11:59.376Z,74.85
2018-05-18T12:13:05.716Z,75.08
2018-05-18T12:14:12.106Z,74.55
2018-05-18T12:15:18.619Z,75.14
2018-05-18T12:16:24.845Z,74.42
2018-05-18T12:17:31.198Z,72.60
2018-05-18T12:18:37.438Z,74.23
2018-05-18T12:19:43.787Z,74.19
2018-05-18T12:20:50.081Z,73.83
2018-05-18T12:21:56.435Z,73.76
2018-05-18T12:23:02.693Z,74.52
2018-05-18T12:24:08.706Z,74.75
2018-05-18T12:25:15.010Z,75.43
2018-05-18T12:26:21.349Z,76.41
2018-05-18T12:27:30.748Z,75.45
2018-05-18T12:28:37.112Z,74.82
2018-05-18T12:29:43.364Z,75.93
2018-05-18T12:30:49.656Z,76.55
2018-05-18T12:31:56.205Z,76.22
2018-05-18T12:33:02.620Z,74.95
2018-05-18T12:34:08.885Z,74.50
2018-05-18T12:35:15.209Z,74.90
2018-05-18T12:36:22.205Z,75.11
2018-05-18T12:37:28.426Z,74.98
2018-05-18T12:38:34.649Z,75.99
2018-05-18T12:39:40.988Z,74.63
2018-05-18T12:40:47.244Z,74.95
2018-05-18T12:41:54.091Z,74.15
2018-05-18T12:43:01.416Z,74.66
2018-05-18T12:44:08.135Z,74.68
2018-05-18T12:45:14.562Z,74.64
2018-05-18T12:46:20.902Z,75.40
2018-05-18T12:47:27.314Z,75.70
2018-05-18T12:48:33.594Z,75.03
2018-05-18T12:49:39.917Z,75.33
2018-05-18T12:50:46.112Z,74.49
2018-05-18T12:51:52.449Z,74.82
2018-05-18T12:52:58.744Z,75.39
2018-05-18T12:54:04.848Z,75.04
2018-05-18T12:55:11.271Z,75.02
2018-05-18T12:56:17.576Z,75.02
2018-05-18T12:57:31.065Z,75.33
2018-05-18T12:58:38.309Z,74.10
2018-05-18T12:59:44.547Z,75.55
2018-05-18T13:00:50.814Z,74.99
2018-05-18T13:01:57.151Z,74.95
2018-05-18T13:03:03.560Z,74.16
2018-05-18T13:04:09.984Z,76.53
2018-05-18T13:05:16.357Z,75.91
2018-05-18T13:06:22.789Z,75.92
2018-05-18T13:07:29.124Z,76.02
2018-05-18T13:08:35.505Z,75.00
2018-05-18T13:09:41.941Z,75.54
2018-05-18T13:10:48.339Z,75.61
2018-05-18T13:11:54.775Z,74.22
2018-05-18T13:13:01.065Z,74.47
2018-05-18T13:14:08.011Z,74.83
2018-05-18T13:15:15.105Z,73.51
2018-05-18T13:16:21.454Z,73.21
2018-05-18T13:17:27.783Z,73.30
2018-05-18T13:18:42.507Z,73.16
2018-05-18T13:19:49.597Z,73.87
2018-05-18T13:20:55.900Z,73.83
2018-05-18T13:22:02.222Z,74.25
2018-05-18T13:23:08.609Z,74.01
2018-05-18T13:24:14.916Z,73.41
2018-05-18T13:25:21.238Z,73.20
2018-05-18T13:26:28.347Z,73.79
2018-05-18T13:27:34.845Z,73.02
2018-05-18T13:28:41.100Z,72.62
2018-05-18T13:29:48.358Z,71.96
2018-05-18T13:30:55.101Z,73.13
2018-05-18T13:32:02.517Z,73.04
2018-05-18T13:33:08.816Z,73.82
2018-05-18T13:34:15.135Z,73.13
2018-05-18T13:35:21.417Z,73.41
2018-05-18T13:36:27.738Z,72.60
2018-05-18T13:37:34.070Z,73.02
2018-05-18T13:38:40.463Z,73.14
2018-05-18T13:39:47.014Z,72.95
2018-05-18T13:40:53.299Z,72.99
2018-05-18T13:41:59.648Z,73.05
2018-05-18T13:43:06.441Z,72.25
2018-05-18T13:44:12.756Z,72.17
2018-05-18T13:45:19.564Z,72.17
2018-05-18T13:46:26.544Z,71.97
2018-05-18T13:47:32.840Z,72.28
2018-05-18T13:48:39.099Z,72.52
2018-05-18T13:49:45.416Z,73.75
2018-05-18T13:50:51.731Z,73.93
2018-05-18T13:51:58.040Z,73.29
2018-05-18T13:53:04.583Z,73.31
2018-05-18T13:54:10.877Z,73.45
2018-05-18T13:55:17.181Z,72.69
2018-05-18T13:56:23.497Z,73.47
2018-05-18T13:57:29.836Z,73.82
2018-05-18T13:58:36.149Z,73.11
2018-05-18T13:59:42.429Z,74.17
2018-05-18T14:00:48.775Z,74.59
2018-05-18T14:01:55.721Z,73.72
2018-05-18T14:03:02.006Z,74.26
2018-05-18T14:04:08.338Z,73.75
2018-05-18T14:05:14.704Z,73.72
2018-05-18T14:06:21.013Z,73.93
2018-05-18T14:07:27.354Z,73.99
2018-05-18T14:08:33.640Z,74.47
2018-05-18T14:09:39.964Z,75.13
2018-05-18T14:10:46.384Z,74.89
2018-05-18T14:11:52.778Z,74.23
2018-05-18T14:12:59.115Z,73.86
2018-05-18T14:14:05.102Z,74.81
2018-05-18T14:15:11.510Z,75.48
2018-05-18T14:16:17.869Z,74.69
2018-05-18T14:17:24.280Z,73.88
2018-05-18T14:18:30.678Z,73.19
2018-05-18T14:19:37.081Z,73.69
2018-05-18T14:20:43.496Z,72.69